sensor_id;sensor_type;location;lat;lon;timestamp;P1;durP1;ratioP1;P2;durP2;ratioP2
79212;SDS011;68639;52.380;9.822;2023-04-01T00:00:30;7.50;;;2.00;;
79212;SDS011;68639;52.380;9.822;2023-04-01T00:02:55;6.83;;;2.10;;
79212;SDS011;68639;52.380;9.822;2023-04-01T00:05:20;8.23;;;2.03;;
79212;SDS011;68639;52.380;9.822;2023-04-01T00:07:46;4.50;;;1.80;;
79212;SDS011;68639;52.380;9.822;2023-04-01T00:10:11;7.17;;;2.27;;
79212;SDS011;68639;52.380;9.822;2023-04-01T00:12:37;7.77;;;2.00;;
79212;SDS011;68639;52.380;9.822;2023-04-01T00:15:03;9.03;;;2.50;;
79212;SDS011;68639;52.380;9.822;2023-04-01T00:17:28;8.23;;;2.47;;
79212;SDS011;68639;52.380;9.822;2023-04-01T00:19:56;7.83;;;2.20;;
79212;SDS011;68639;52.380;9.822;2023-04-01T00:22:22;8.60;;;2.50;;
79212;SDS011;68639;52.380;9.822;2023-04-01T00:24:47;6.97;;;2.47;;
79212;SDS011;68639;52.380;9.822;2023-04-01T00:27:12;8.60;;;2.33;;
79212;SDS011;68639;52.380;9.822;2023-04-01T00:29:37;7.60;;;2.20;;
79212;SDS011;68639;52.380;9.822;2023-04-01T00:32:03;9.00;;;2.43;;
79212;SDS011;68639;52.380;9.822;2023-04-01T00:34:28;10.10;;;2.83;;
79212;SDS011;68639;52.380;9.822;2023-04-01T00:36:53;9.67;;;1.97;;
79212;SDS011;68639;52.380;9.822;2023-04-01T00:39:19;10.23;;;2.23;;
79212;SDS011;68639;52.380;9.822;2023-04-01T00:41:45;11.07;;;2.07;;
79212;SDS011;68639;52.380;9.822;2023-04-01T00:44:11;10.20;;;2.00;;
79212;SDS011;68639;52.380;9.822;2023-04-01T00:46:39;11.40;;;1.90;;
79212;SDS011;68639;52.380;9.822;2023-04-01T00:49:04;10.33;;;2.07;;
79212;SDS011;68639;52.380;9.822;2023-04-01T00:51:29;11.07;;;2.17;;
79212;SDS011;68639;52.380;9.822;2023-04-01T00:53:56;7.07;;;1.50;;
79212;SDS011;68639;52.380;9.822;2023-04-01T00:56:24;9.77;;;2.20;;
79212;SDS011;68639;52.380;9.822;2023-04-01T00:58:52;5.93;;;1.77;;
79212;SDS011;68639;52.380;9.822;2023-04-01T01:01:20;8.70;;;1.70;;
79212;SDS011;68639;52.380;9.822;2023-04-01T01:03:46;10.37;;;1.93;;
79212;SDS011;68639;52.380;9.822;2023-04-01T01:11:29;7.43;;;1.90;;
79212;SDS011;68639;52.380;9.822;2023-04-01T01:16:37;4.87;;;1.30;;
79212;SDS011;68639;52.380;9.822;2023-04-01T01:19:19;6.33;;;1.60;;
79212;SDS011;68639;52.380;9.822;2023-04-01T01:32:24;4.87;;;1.30;;
79212;SDS011;68639;52.380;9.822;2023-04-01T01:37:35;5.40;;;1.33;;
79212;SDS011;68639;52.380;9.822;2023-04-01T01:40:05;4.03;;;1.40;;
79212;SDS011;68639;52.380;9.822;2023-04-01T01:42:31;9.10;;;1.43;;
79212;SDS011;68639;52.380;9.822;2023-04-01T01:44:58;5.03;;;1.30;;
79212;SDS011;68639;52.380;9.822;2023-04-01T01:47:24;4.63;;;1.10;;
79212;SDS011;68639;52.380;9.822;2023-04-01T01:49:51;3.63;;;0.90;;
79212;SDS011;68639;52.380;9.822;2023-04-01T01:52:17;3.97;;;1.10;;
79212;SDS011;68639;52.380;9.822;2023-04-01T01:54:50;5.83;;;1.30;;
79212;SDS011;68639;52.380;9.822;2023-04-01T01:57:16;8.53;;;1.63;;
79212;SDS011;68639;52.380;9.822;2023-04-01T01:59:42;7.27;;;1.60;;
79212;SDS011;68639;52.380;9.822;2023-04-01T02:02:08;6.63;;;1.30;;
79212;SDS011;68639;52.380;9.822;2023-04-01T02:04:36;8.63;;;1.53;;
79212;SDS011;68639;52.380;9.822;2023-04-01T02:07:02;7.80;;;1.30;;
79212;SDS011;68639;52.380;9.822;2023-04-01T02:09:28;8.50;;;1.10;;
79212;SDS011;68639;52.380;9.822;2023-04-01T02:11:56;6.27;;;1.40;;
79212;SDS011;68639;52.380;9.822;2023-04-01T02:14:22;6.70;;;1.30;;
79212;SDS011;68639;52.380;9.822;2023-04-01T02:16:59;4.23;;;1.10;;
79212;SDS011;68639;52.380;9.822;2023-04-01T02:19:31;3.57;;;1.03;;
79212;SDS011;68639;52.380;9.822;2023-04-01T02:21:59;6.53;;;1.20;;
79212;SDS011;68639;52.380;9.822;2023-04-01T02:24:26;4.93;;;1.57;;
79212;SDS011;68639;52.380;9.822;2023-04-01T02:26:52;5.87;;;1.37;;
79212;SDS011;68639;52.380;9.822;2023-04-01T02:29:20;10.03;;;1.43;;
79212;SDS011;68639;52.380;9.822;2023-04-01T02:31:46;4.67;;;1.27;;
79212;SDS011;68639;52.380;9.822;2023-04-01T02:34:12;5.13;;;1.23;;
79212;SDS011;68639;52.380;9.822;2023-04-01T02:36:37;7.27;;;1.30;;
79212;SDS011;68639;52.380;9.822;2023-04-01T02:39:03;1.90;;;0.90;;
79212;SDS011;68639;52.380;9.822;2023-04-01T02:41:29;2.87;;;1.00;;
79212;SDS011;68639;52.380;9.822;2023-04-01T02:43:54;5.47;;;1.23;;
79212;SDS011;68639;52.380;9.822;2023-04-01T02:46:22;3.17;;;0.80;;
79212;SDS011;68639;52.380;9.822;2023-04-01T02:48:47;3.70;;;1.10;;
79212;SDS011;68639;52.380;9.822;2023-04-01T02:51:12;3.50;;;1.07;;
79212;SDS011;68639;52.380;9.822;2023-04-01T02:53:38;4.73;;;0.90;;
79212;SDS011;68639;52.380;9.822;2023-04-01T02:56:03;2.93;;;0.90;;
79212;SDS011;68639;52.380;9.822;2023-04-01T02:58:28;5.63;;;0.77;;
79212;SDS011;68639;52.380;9.822;2023-04-01T03:00:53;3.10;;;1.00;;
79212;SDS011;68639;52.380;9.822;2023-04-01T03:03:19;4.93;;;1.00;;
79212;SDS011;68639;52.380;9.822;2023-04-01T03:05:44;5.90;;;1.40;;
79212;SDS011;68639;52.380;9.822;2023-04-01T03:08:09;4.23;;;1.10;;
79212;SDS011;68639;52.380;9.822;2023-04-01T03:10:35;8.83;;;1.40;;
79212;SDS011;68639;52.380;9.822;2023-04-01T03:13:00;4.13;;;1.10;;
79212;SDS011;68639;52.380;9.822;2023-04-01T03:15:25;5.10;;;1.20;;
79212;SDS011;68639;52.380;9.822;2023-04-01T03:17:51;6.33;;;1.30;;
79212;SDS011;68639;52.380;9.822;2023-04-01T03:20:17;4.20;;;1.20;;
79212;SDS011;68639;52.380;9.822;2023-04-01T03:22:42;3.43;;;1.13;;
79212;SDS011;68639;52.380;9.822;2023-04-01T03:25:08;7.33;;;1.40;;
79212;SDS011;68639;52.380;9.822;2023-04-01T03:27:33;7.53;;;1.73;;
79212;SDS011;68639;52.380;9.822;2023-04-01T03:30:00;3.73;;;1.33;;
79212;SDS011;68639;52.380;9.822;2023-04-01T03:32:25;4.27;;;1.40;;
79212;SDS011;68639;52.380;9.822;2023-04-01T03:34:52;4.83;;;1.30;;
79212;SDS011;68639;52.380;9.822;2023-04-01T03:37:17;6.70;;;1.50;;
79212;SDS011;68639;52.380;9.822;2023-04-01T03:39:42;4.47;;;1.53;;
79212;SDS011;68639;52.380;9.822;2023-04-01T03:42:07;4.17;;;1.13;;
79212;SDS011;68639;52.380;9.822;2023-04-01T03:44:33;5.37;;;1.30;;
79212;SDS011;68639;52.380;9.822;2023-04-01T03:46:58;6.07;;;1.30;;
79212;SDS011;68639;52.380;9.822;2023-04-01T03:49:24;3.73;;;1.40;;
79212;SDS011;68639;52.380;9.822;2023-04-01T03:51:49;5.67;;;1.50;;
79212;SDS011;68639;52.380;9.822;2023-04-01T03:54:14;5.93;;;1.60;;
79212;SDS011;68639;52.380;9.822;2023-04-01T03:56:40;3.70;;;1.40;;
79212;SDS011;68639;52.380;9.822;2023-04-01T03:59:06;6.07;;;1.60;;
79212;SDS011;68639;52.380;9.822;2023-04-01T04:01:32;7.43;;;1.40;;
79212;SDS011;68639;52.380;9.822;2023-04-01T04:03:57;5.20;;;1.13;;
79212;SDS011;68639;52.380;9.822;2023-04-01T04:06:23;6.93;;;1.67;;
79212;SDS011;68639;52.380;9.822;2023-04-01T04:08:49;6.33;;;1.63;;
79212;SDS011;68639;52.380;9.822;2023-04-01T04:11:14;4.50;;;1.60;;
79212;SDS011;68639;52.380;9.822;2023-04-01T04:13:40;4.47;;;1.33;;
79212;SDS011;68639;52.380;9.822;2023-04-01T04:16:05;8.63;;;1.53;;
79212;SDS011;68639;52.380;9.822;2023-04-01T04:18:31;6.07;;;1.20;;
79212;SDS011;68639;52.380;9.822;2023-04-01T04:20:56;5.77;;;1.20;;
79212;SDS011;68639;52.380;9.822;2023-04-01T04:23:21;5.53;;;1.23;;
79212;SDS011;68639;52.380;9.822;2023-04-01T04:26:08;7.40;;;1.57;;
79212;SDS011;68639;52.380;9.822;2023-04-01T04:28:34;6.23;;;1.37;;
79212;SDS011;68639;52.380;9.822;2023-04-01T04:31:00;4.57;;;1.50;;
79212;SDS011;68639;52.380;9.822;2023-04-01T04:33:26;4.17;;;1.20;;
79212;SDS011;68639;52.380;9.822;2023-04-01T04:35:51;6.53;;;1.37;;
79212;SDS011;68639;52.380;9.822;2023-04-01T04:38:19;4.50;;;1.30;;
79212;SDS011;68639;52.380;9.822;2023-04-01T04:40:45;4.80;;;1.40;;
79212;SDS011;68639;52.380;9.822;2023-04-01T04:43:11;9.53;;;1.60;;
79212;SDS011;68639;52.380;9.822;2023-04-01T04:45:36;6.40;;;1.17;;
79212;SDS011;68639;52.380;9.822;2023-04-01T04:48:01;5.97;;;1.60;;
79212;SDS011;68639;52.380;9.822;2023-04-01T04:50:27;4.67;;;1.37;;
79212;SDS011;68639;52.380;9.822;2023-04-01T04:52:52;6.10;;;1.37;;
79212;SDS011;68639;52.380;9.822;2023-04-01T04:55:17;7.43;;;1.50;;
79212;SDS011;68639;52.380;9.822;2023-04-01T04:57:42;3.70;;;1.10;;
79212;SDS011;68639;52.380;9.822;2023-04-01T05:00:08;6.43;;;1.40;;
79212;SDS011;68639;52.380;9.822;2023-04-01T05:02:35;7.77;;;1.43;;
79212;SDS011;68639;52.380;9.822;2023-04-01T05:05:00;5.40;;;1.10;;
79212;SDS011;68639;52.380;9.822;2023-04-01T05:07:25;5.57;;;1.30;;
79212;SDS011;68639;52.380;9.822;2023-04-01T05:09:51;5.60;;;1.60;;
79212;SDS011;68639;52.380;9.822;2023-04-01T05:12:16;4.47;;;1.40;;
79212;SDS011;68639;52.380;9.822;2023-04-01T05:14:41;5.87;;;1.30;;
79212;SDS011;68639;52.380;9.822;2023-04-01T05:17:10;4.47;;;1.20;;
79212;SDS011;68639;52.380;9.822;2023-04-01T05:19:36;6.47;;;1.40;;
79212;SDS011;68639;52.380;9.822;2023-04-01T05:22:01;4.03;;;1.27;;
79212;SDS011;68639;52.380;9.822;2023-04-01T05:24:26;6.03;;;1.40;;
79212;SDS011;68639;52.380;9.822;2023-04-01T05:26:51;5.70;;;1.23;;
79212;SDS011;68639;52.380;9.822;2023-04-01T05:29:17;4.60;;;1.53;;
79212;SDS011;68639;52.380;9.822;2023-04-01T05:31:42;3.93;;;1.17;;
79212;SDS011;68639;52.380;9.822;2023-04-01T05:34:07;5.73;;;1.33;;
79212;SDS011;68639;52.380;9.822;2023-04-01T05:36:32;5.93;;;1.40;;
79212;SDS011;68639;52.380;9.822;2023-04-01T05:38:58;12.33;;;2.73;;
79212;SDS011;68639;52.380;9.822;2023-04-01T05:41:23;3.67;;;1.20;;
79212;SDS011;68639;52.380;9.822;2023-04-01T05:43:48;5.33;;;1.37;;
79212;SDS011;68639;52.380;9.822;2023-04-01T05:46:14;5.67;;;1.43;;
79212;SDS011;68639;52.380;9.822;2023-04-01T05:48:39;6.43;;;1.33;;
79212;SDS011;68639;52.380;9.822;2023-04-01T05:51:04;5.77;;;1.27;;
79212;SDS011;68639;52.380;9.822;2023-04-01T05:53:30;4.63;;;1.43;;
79212;SDS011;68639;52.380;9.822;2023-04-01T05:55:55;4.30;;;1.30;;
79212;SDS011;68639;52.380;9.822;2023-04-01T05:58:20;6.83;;;1.30;;
79212;SDS011;68639;52.380;9.822;2023-04-01T06:00:45;5.70;;;1.60;;
79212;SDS011;68639;52.380;9.822;2023-04-01T06:03:11;3.30;;;0.97;;
79212;SDS011;68639;52.380;9.822;2023-04-01T06:05:39;6.40;;;1.33;;
79212;SDS011;68639;52.380;9.822;2023-04-01T06:08:15;4.27;;;1.40;;
79212;SDS011;68639;52.380;9.822;2023-04-01T06:10:57;6.53;;;1.60;;
79212;SDS011;68639;52.380;9.822;2023-04-01T06:19:02;5.17;;;1.60;;
79212;SDS011;68639;52.380;9.822;2023-04-01T06:26:37;9.70;;;1.57;;
79212;SDS011;68639;52.380;9.822;2023-04-01T06:30:04;4.83;;;1.80;;
79212;SDS011;68639;52.380;9.822;2023-04-01T06:32:17;5.80;;;1.37;;
79212;SDS011;68639;52.380;9.822;2023-04-01T06:47:17;6.80;;;1.20;;
79212;SDS011;68639;52.380;9.822;2023-04-01T06:49:53;5.63;;;1.30;;
79212;SDS011;68639;52.380;9.822;2023-04-01T06:57:46;5.80;;;1.53;;
79212;SDS011;68639;52.380;9.822;2023-04-01T07:00:13;4.27;;;1.17;;
79212;SDS011;68639;52.380;9.822;2023-04-01T07:02:43;5.37;;;1.27;;
79212;SDS011;68639;52.380;9.822;2023-04-01T07:05:13;5.20;;;1.30;;
79212;SDS011;68639;52.380;9.822;2023-04-01T07:10:10;5.30;;;1.53;;
79212;SDS011;68639;52.380;9.822;2023-04-01T07:12:43;4.70;;;1.40;;
79212;SDS011;68639;52.380;9.822;2023-04-01T07:15:15;4.77;;;1.40;;
79212;SDS011;68639;52.380;9.822;2023-04-01T07:17:42;4.30;;;1.60;;
79212;SDS011;68639;52.380;9.822;2023-04-01T07:20:41;4.43;;;1.43;;
79212;SDS011;68639;52.380;9.822;2023-04-01T07:23:04;6.50;;;1.93;;
79212;SDS011;68639;52.380;9.822;2023-04-01T07:25:33;5.83;;;1.10;;
79212;SDS011;68639;52.380;9.822;2023-04-01T07:28:06;4.70;;;1.30;;
79212;SDS011;68639;52.380;9.822;2023-04-01T07:33:20;6.65;;;1.58;;
79212;SDS011;68639;52.380;9.822;2023-04-01T07:35:49;5.13;;;1.30;;
79212;SDS011;68639;52.380;9.822;2023-04-01T07:40:46;4.70;;;1.23;;
79212;SDS011;68639;52.380;9.822;2023-04-01T07:51:02;2.23;;;0.83;;
79212;SDS011;68639;52.380;9.822;2023-04-01T08:01:00;3.33;;;1.00;;
79212;SDS011;68639;52.380;9.822;2023-04-01T08:16:30;3.67;;;0.80;;
79212;SDS011;68639;52.380;9.822;2023-04-01T08:21:42;4.80;;;1.70;;
79212;SDS011;68639;52.380;9.822;2023-04-01T08:24:22;4.10;;;1.10;;
79212;SDS011;68639;52.380;9.822;2023-04-01T08:26:50;6.88;;;1.20;;
79212;SDS011;68639;52.380;9.822;2023-04-01T08:29:26;6.10;;;1.27;;
79212;SDS011;68639;52.380;9.822;2023-04-01T08:34:23;3.90;;;0.97;;
79212;SDS011;68639;52.380;9.822;2023-04-01T08:37:09;3.72;;;1.10;;
79212;SDS011;68639;52.380;9.822;2023-04-01T08:39:43;4.30;;;0.93;;
79212;SDS011;68639;52.380;9.822;2023-04-01T08:55:40;2.20;;;0.60;;
79212;SDS011;68639;52.380;9.822;2023-04-01T09:44:58;2.92;;;0.52;;
79212;SDS011;68639;52.380;9.822;2023-04-01T09:56:07;3.20;;;0.60;;
79212;SDS011;68639;52.380;9.822;2023-04-01T10:17:04;3.63;;;0.50;;
79212;SDS011;68639;52.380;9.822;2023-04-01T10:48:20;5.53;;;0.90;;
79212;SDS011;68639;52.380;9.822;2023-04-01T11:25:00;1.92;;;0.70;;
79212;SDS011;68639;52.380;9.822;2023-04-01T11:27:08;3.25;;;0.90;;
79212;SDS011;68639;52.380;9.822;2023-04-01T11:29:41;3.47;;;0.90;;
79212;SDS011;68639;52.380;9.822;2023-04-01T11:37:39;2.78;;;0.70;;
79212;SDS011;68639;52.380;9.822;2023-04-01T11:43:07;3.15;;;0.70;;
79212;SDS011;68639;52.380;9.822;2023-04-01T11:53:30;3.83;;;0.80;;
79212;SDS011;68639;52.380;9.822;2023-04-01T12:06:51;4.05;;;1.13;;
79212;SDS011;68639;52.380;9.822;2023-04-01T12:22:00;15.18;;;2.63;;
79212;SDS011;68639;52.380;9.822;2023-04-01T12:24:45;2.63;;;0.80;;
79212;SDS011;68639;52.380;9.822;2023-04-01T12:32:20;2.97;;;0.90;;
79212;SDS011;68639;52.380;9.822;2023-04-01T12:45:17;6.47;;;0.90;;
79212;SDS011;68639;52.380;9.822;2023-04-01T12:55:43;3.63;;;0.90;;
79212;SDS011;68639;52.380;9.822;2023-04-01T13:06:27;2.75;;;0.90;;
79212;SDS011;68639;52.380;9.822;2023-04-01T13:16:42;2.33;;;0.60;;
79212;SDS011;68639;52.380;9.822;2023-04-01T13:21:45;1.67;;;0.60;;
79212;SDS011;68639;52.380;9.822;2023-04-01T13:26:49;0.68;;;0.40;;
79212;SDS011;68639;52.380;9.822;2023-04-01T13:29:20;1.05;;;0.45;;
79212;SDS011;68639;52.380;9.822;2023-04-01T13:34:16;1.80;;;0.68;;
79212;SDS011;68639;52.380;9.822;2023-04-01T13:49:53;1.55;;;1.00;;
79212;SDS011;68639;52.380;9.822;2023-04-01T13:52:44;2.47;;;1.48;;
79212;SDS011;68639;52.380;9.822;2023-04-01T13:55:16;2.58;;;1.60;;
79212;SDS011;68639;52.380;9.822;2023-04-01T14:21:13;3.77;;;1.77;;
79212;SDS011;68639;52.380;9.822;2023-04-01T14:26:22;1.77;;;1.50;;
79212;SDS011;68639;52.380;9.822;2023-04-01T14:31:30;4.10;;;1.67;;
79212;SDS011;68639;52.380;9.822;2023-04-01T14:49:32;3.30;;;2.03;;
79212;SDS011;68639;52.380;9.822;2023-04-01T14:54:36;2.00;;;1.10;;
79212;SDS011;68639;52.380;9.822;2023-04-01T14:57:12;3.97;;;1.43;;
79212;SDS011;68639;52.380;9.822;2023-04-01T14:59:39;2.60;;;1.70;;
79212;SDS011;68639;52.380;9.822;2023-04-01T15:23:04;2.50;;;1.40;;
79212;SDS011;68639;52.380;9.822;2023-04-01T15:28:05;3.20;;;0.90;;
79212;SDS011;68639;52.380;9.822;2023-04-01T15:33:19;2.50;;;1.00;;
79212;SDS011;68639;52.380;9.822;2023-04-01T15:43:41;4.90;;;2.77;;
79212;SDS011;68639;52.380;9.822;2023-04-01T15:49:14;6.27;;;2.13;;
79212;SDS011;68639;52.380;9.822;2023-04-01T15:54:17;2.67;;;1.80;;
79212;SDS011;68639;52.380;9.822;2023-04-01T15:59:34;3.90;;;1.90;;
79212;SDS011;68639;52.380;9.822;2023-04-01T16:02:12;5.00;;;4.00;;
79212;SDS011;68639;52.380;9.822;2023-04-01T16:04:50;2.97;;;1.90;;
79212;SDS011;68639;52.380;9.822;2023-04-01T16:10:09;2.10;;;1.40;;
79212;SDS011;68639;52.380;9.822;2023-04-01T16:12:50;3.20;;;2.80;;
79212;SDS011;68639;52.380;9.822;2023-04-01T16:20:25;4.23;;;2.40;;
79212;SDS011;68639;52.380;9.822;2023-04-01T16:23:02;4.37;;;2.17;;
79212;SDS011;68639;52.380;9.822;2023-04-01T16:28:02;4.70;;;2.00;;
79212;SDS011;68639;52.380;9.822;2023-04-01T16:33:00;4.27;;;1.80;;
79212;SDS011;68639;52.380;9.822;2023-04-01T16:38:13;3.00;;;2.30;;
79212;SDS011;68639;52.380;9.822;2023-04-01T16:40:42;4.53;;;2.50;;
79212;SDS011;68639;52.380;9.822;2023-04-01T16:44:09;3.23;;;2.10;;
79212;SDS011;68639;52.380;9.822;2023-04-01T16:51:20;3.47;;;2.37;;
79212;SDS011;68639;52.380;9.822;2023-04-01T16:54:11;3.53;;;1.90;;
79212;SDS011;68639;52.380;9.822;2023-04-01T16:56:39;2.53;;;2.07;;
79212;SDS011;68639;52.380;9.822;2023-04-01T16:59:07;2.60;;;1.80;;
79212;SDS011;68639;52.380;9.822;2023-04-01T17:04:13;2.60;;;1.80;;
79212;SDS011;68639;52.380;9.822;2023-04-01T17:29:17;4.60;;;1.97;;
79212;SDS011;68639;52.380;9.822;2023-04-01T17:31:51;3.80;;;2.03;;
79212;SDS011;68639;52.380;9.822;2023-04-01T17:59:49;4.47;;;2.10;;
79212;SDS011;68639;52.380;9.822;2023-04-01T18:02:26;3.60;;;2.50;;
79212;SDS011;68639;52.380;9.822;2023-04-01T18:20:14;4.23;;;2.50;;
79212;SDS011;68639;52.380;9.822;2023-04-01T18:22:41;5.20;;;2.40;;
79212;SDS011;68639;52.380;9.822;2023-04-01T18:25:17;4.37;;;2.37;;
79212;SDS011;68639;52.380;9.822;2023-04-01T18:27:45;5.00;;;2.30;;
79212;SDS011;68639;52.380;9.822;2023-04-01T18:35:29;4.03;;;2.43;;
79212;SDS011;68639;52.380;9.822;2023-04-01T18:38:04;3.50;;;2.20;;
79212;SDS011;68639;52.380;9.822;2023-04-01T18:40:48;4.27;;;2.20;;
79212;SDS011;68639;52.380;9.822;2023-04-01T18:46:05;5.37;;;2.50;;
79212;SDS011;68639;52.380;9.822;2023-04-01T18:48:44;5.23;;;2.47;;
79212;SDS011;68639;52.380;9.822;2023-04-01T18:53:57;4.77;;;2.60;;
79212;SDS011;68639;52.380;9.822;2023-04-01T19:06:15;5.37;;;3.60;;
79212;SDS011;68639;52.380;9.822;2023-04-01T19:08:42;5.43;;;3.40;;
79212;SDS011;68639;52.380;9.822;2023-04-01T19:45:22;6.60;;;4.10;;
79212;SDS011;68639;52.380;9.822;2023-04-01T19:52:41;6.20;;;4.20;;
79212;SDS011;68639;52.380;9.822;2023-04-01T20:00:12;6.60;;;3.60;;
79212;SDS011;68639;52.380;9.822;2023-04-01T20:07:56;6.20;;;3.37;;
79212;SDS011;68639;52.380;9.822;2023-04-01T20:17:58;7.13;;;4.20;;
79212;SDS011;68639;52.380;9.822;2023-04-01T20:20:25;4.90;;;3.30;;
79212;SDS011;68639;52.380;9.822;2023-04-01T20:40:37;11.73;;;5.97;;
79212;SDS011;68639;52.380;9.822;2023-04-01T20:48:28;11.70;;;6.03;;
79212;SDS011;68639;52.380;9.822;2023-04-01T20:51:15;9.90;;;6.70;;
79212;SDS011;68639;52.380;9.822;2023-04-01T20:53:51;11.10;;;6.40;;
79212;SDS011;68639;52.380;9.822;2023-04-01T20:58:57;11.80;;;6.83;;
79212;SDS011;68639;52.380;9.822;2023-04-01T21:09:15;14.30;;;8.23;;
79212;SDS011;68639;52.380;9.822;2023-04-01T21:11:56;13.27;;;7.73;;
79212;SDS011;68639;52.380;9.822;2023-04-01T21:19:27;12.07;;;6.10;;
79212;SDS011;68639;52.380;9.822;2023-04-01T21:27:38;10.70;;;6.30;;
79212;SDS011;68639;52.380;9.822;2023-04-01T21:40:37;10.10;;;5.70;;
79212;SDS011;68639;52.380;9.822;2023-04-01T21:43:12;9.10;;;6.07;;
79212;SDS011;68639;52.380;9.822;2023-04-01T21:56:10;10.77;;;5.93;;
79212;SDS011;68639;52.380;9.822;2023-04-01T22:08:51;10.87;;;5.63;;
79212;SDS011;68639;52.380;9.822;2023-04-01T22:13:50;14.03;;;5.80;;
79212;SDS011;68639;52.380;9.822;2023-04-01T22:16:40;9.00;;;5.47;;
79212;SDS011;68639;52.380;9.822;2023-04-01T22:19:19;12.00;;;6.57;;
79212;SDS011;68639;52.380;9.822;2023-04-01T22:25:19;19.83;;;7.57;;
79212;SDS011;68639;52.380;9.822;2023-04-01T22:30:07;12.87;;;7.10;;
79212;SDS011;68639;52.380;9.822;2023-04-01T22:32:38;19.87;;;8.10;;
79212;SDS011;68639;52.380;9.822;2023-04-01T22:40:21;15.83;;;8.23;;
79212;SDS011;68639;52.380;9.822;2023-04-01T22:45:36;14.77;;;6.87;;
79212;SDS011;68639;52.380;9.822;2023-04-01T22:50:33;15.13;;;8.60;;
79212;SDS011;68639;52.380;9.822;2023-04-01T22:53:07;18.23;;;9.17;;
79212;SDS011;68639;52.380;9.822;2023-04-01T22:55:33;19.17;;;8.60;;
79212;SDS011;68639;52.380;9.822;2023-04-01T22:58:02;16.17;;;8.20;;
79212;SDS011;68639;52.380;9.822;2023-04-01T23:03:09;16.90;;;8.77;;
79212;SDS011;68639;52.380;9.822;2023-04-01T23:05:37;16.53;;;8.27;;
79212;SDS011;68639;52.380;9.822;2023-04-01T23:10:51;18.10;;;8.33;;
79212;SDS011;68639;52.380;9.822;2023-04-01T23:13:20;15.30;;;8.10;;
79212;SDS011;68639;52.380;9.822;2023-04-01T23:15:47;13.63;;;7.40;;
79212;SDS011;68639;52.380;9.822;2023-04-01T23:18:21;15.23;;;7.93;;
79212;SDS011;68639;52.380;9.822;2023-04-01T23:21:49;16.17;;;8.03;;
79212;SDS011;68639;52.380;9.822;2023-04-01T23:23:47;16.23;;;7.77;;
79212;SDS011;68639;52.380;9.822;2023-04-01T23:26:33;17.17;;;8.30;;
79212;SDS011;68639;52.380;9.822;2023-04-01T23:29:00;19.97;;;8.13;;
79212;SDS011;68639;52.380;9.822;2023-04-01T23:34:05;17.53;;;8.30;;
79212;SDS011;68639;52.380;9.822;2023-04-01T23:36:49;17.60;;;7.80;;
79212;SDS011;68639;52.380;9.822;2023-04-01T23:41:58;18.67;;;8.00;;
79212;SDS011;68639;52.380;9.822;2023-04-01T23:44:24;15.27;;;7.23;;
79212;SDS011;68639;52.380;9.822;2023-04-01T23:46:50;12.27;;;6.37;;
79212;SDS011;68639;52.380;9.822;2023-04-01T23:49:21;15.27;;;7.03;;
79212;SDS011;68639;52.380;9.822;2023-04-01T23:51:50;18.30;;;7.10;;
79212;SDS011;68639;52.380;9.822;2023-04-01T23:56:56;17.67;;;6.10;;
79212;SDS011;68639;52.380;9.822;2023-04-01T23:59:29;15.50;;;6.33;;
